createdAt,value
2022-12-03T00:01:28.000Z,97348.03
2022-12-03T00:03:56.697Z,97350.53
2022-12-03T00:06:26.323Z,97345.28
2022-12-03T00:08:57.764Z,97351.38
2022-12-03T00:11:27.657Z,97353.28
2022-12-03T00:13:56.036Z,97354.94
2022-12-03T00:16:24.441Z,97362.72
2022-12-03T00:18:53.601Z,97355.78
2022-12-03T00:21:24.526Z,97352.31
2022-12-03T00:23:53.206Z,97348.75
2022-12-03T00:26:21.593Z,97354.94
2022-12-03T00:28:52.086Z,97347.91
2022-12-03T00:31:23.319Z,97345.28
2022-12-03T00:33:51.992Z,97351.38
2022-12-03T00:36:20.934Z,97349.59
2022-12-03T00:38:49.317Z,97354.94
2022-12-03T00:41:17.880Z,97355.78
2022-12-03T00:43:46.307Z,97348.03
2022-12-03T00:46:21.121Z,97357.56
2022-12-03T00:48:49.983Z,97362.84
2022-12-03T00:51:18.586Z,97351.50
2022-12-03T00:53:46.930Z,97351.50
2022-12-03T00:56:15.500Z,97361.28
2022-12-03T00:58:43.973Z,97359.38
2022-12-03T01:01:12.448Z,97357.69
2022-12-03T01:03:42.250Z,97360.22
2022-12-03T01:06:10.909Z,97358.53
2022-12-03T01:08:39.321Z,97355.91
2022-12-03T01:11:28.602Z,97351.59
2022-12-03T01:13:57.170Z,97354.13
2022-12-03T01:16:25.632Z,97354.13
2022-12-03T01:18:55.512Z,97351.59
2022-12-03T01:21:24.018Z,97348.13
2022-12-03T01:23:52.437Z,97346.22
2022-12-03T01:26:20.992Z,97343.59
2022-12-03T01:28:49.398Z,97350.66
2022-12-03T01:31:35.332Z,97352.44
2022-12-03T01:34:05.091Z,97342.75
2022-12-03T01:36:34.645Z,97352.44
2022-12-03T01:39:03.377Z,97348.97
2022-12-03T01:41:32.651Z,97349.09
2022-12-03T01:44:01.755Z,97349.09
2022-12-03T01:46:36.429Z,97352.44
2022-12-03T01:49:06.394Z,97344.56
2022-12-03T01:51:34.842Z,97338.47
2022-12-03T01:54:03.836Z,97345.38
2022-12-03T01:56:32.294Z,97343.84
2022-12-03T01:59:00.695Z,97330.56
2022-12-03T02:01:29.196Z,97342.88
2022-12-03T02:03:58.791Z,97344.56
2022-12-03T02:06:29.408Z,97345.50
2022-12-03T02:08:59.736Z,97352.66
2022-12-03T02:11:31.520Z,97349.94
2022-12-03T02:14:02.187Z,97352.56
2022-12-03T02:16:31.188Z,97355.19
2022-12-03T02:18:59.860Z,97349.94
2022-12-03T02:21:33.788Z,97345.75
2022-12-03T02:24:07.052Z,97351.72
2022-12-03T02:26:37.000Z,97356.03
2022-12-03T02:29:05.577Z,97349.09
2022-12-03T02:31:34.143Z,97349.09
2022-12-03T02:34:06.816Z,97354.34
2022-12-03T02:36:37.025Z,97356.97
2022-12-03T02:39:05.804Z,97352.66
2022-12-03T02:41:51.788Z,97351.00
2022-12-03T02:44:21.793Z,97356.13
2022-12-03T02:46:50.437Z,97354.47
2022-12-03T02:49:19.014Z,97357.09
2022-12-03T02:51:47.753Z,97363.19
2022-12-03T02:54:16.169Z,97361.50
2022-12-03T02:56:54.861Z,97358.88
2022-12-03T02:59:25.737Z,97365.09
2022-12-03T03:01:54.585Z,97357.22
2022-12-03T03:04:24.874Z,97355.53
2022-12-03T03:06:53.514Z,97359.94
2022-12-03T03:09:22.242Z,97353.03
2022-12-03T03:11:50.755Z,97355.66
2022-12-03T03:14:19.272Z,97351.47
2022-12-03T03:16:56.145Z,97361.63
2022-12-03T03:19:25.519Z,97354.69
2022-12-03T03:21:54.228Z,97346.81
2022-12-03T03:24:23.401Z,97341.56
2022-12-03T03:26:52.104Z,97352.91
2022-12-03T03:29:20.707Z,97348.59
2022-12-03T03:31:50.881Z,97347.66
2022-12-03T03:34:19.530Z,97348.84
2022-12-03T03:36:47.950Z,97353.03
2022-12-03T03:39:16.494Z,97359.94
2022-12-03T03:41:46.823Z,97345.47
2022-12-03T03:44:15.331Z,97344.31
2022-12-03T03:46:43.779Z,97348.59
2022-12-03T03:49:13.615Z,97336.66
2022-12-03T03:51:42.108Z,97344.31
2022-12-03T03:54:10.556Z,97343.47
2022-12-03T03:56:39.083Z,97350.50
2022-12-03T03:59:07.556Z,97346.22
2022-12-03T04:01:36.023Z,97338.31
2022-12-03T04:04:04.757Z,97347.03
2022-12-03T04:06:34.504Z,97340.13
2022-12-03T04:09:02.907Z,97345.38
2022-12-03T04:11:48.859Z,97333.31
2022-12-03T04:14:17.265Z,97334.03
2022-12-03T04:16:45.819Z,97334.84
2022-12-03T04:19:14.355Z,97325.41
2022-12-03T04:22:01.542Z,97334.03
2022-12-03T04:24:29.940Z,97326.84
2022-12-03T04:27:15.800Z,97325.41
2022-12-03T04:29:44.274Z,97320.88
2022-12-03T04:32:30.028Z,97323.50
2022-12-03T04:35:16.021Z,97328.75
2022-12-03T04:37:45.716Z,97319.94
2022-12-03T04:40:29.408Z,97326.13
2022-12-03T04:42:57.888Z,97321.72
2022-12-03T04:45:26.464Z,97323.63
2022-12-03T04:47:54.852Z,97321.84
2022-12-03T04:50:23.234Z,97324.34
2022-12-03T04:52:53.131Z,97314.06
2022-12-03T04:55:21.473Z,97330.56
2022-12-03T04:57:49.810Z,97326.25
2022-12-03T05:00:18.677Z,97332.22
2022-12-03T05:02:47.218Z,97334.97
2022-12-03T05:05:15.648Z,97334.97
2022-12-03T05:07:44.201Z,97334.97
2022-12-03T05:10:14.203Z,97336.88
2022-12-03T05:12:42.568Z,97328.88
2022-12-03T05:15:11.522Z,97332.56
2022-12-03T05:17:39.879Z,97343.94
2022-12-03T05:20:28.189Z,97338.66
2022-12-03T05:22:56.804Z,97341.19
2022-12-03T05:25:26.590Z,97346.56
2022-12-03T05:27:54.910Z,97346.56
2022-12-03T05:30:23.506Z,97354.56
2022-12-03T05:32:52.126Z,97336.16
2022-12-03T05:35:20.739Z,97349.28
2022-12-03T05:37:49.199Z,97351.09
2022-12-03T05:40:17.962Z,97346.91
2022-12-03T05:42:57.137Z,97348.56
2022-12-03T05:45:27.641Z,97343.31
2022-12-03T05:47:58.013Z,97353.00
2022-12-03T05:50:28.522Z,97353.81
2022-12-03T05:52:57.433Z,97345.22
2022-12-03T05:55:25.909Z,97353.00
2022-12-03T05:57:56.042Z,97349.53
2022-12-03T06:00:26.876Z,97345.09
2022-12-03T06:02:55.571Z,97353.00
2022-12-03T06:05:24.768Z,97353.09
2022-12-03T06:07:54.158Z,97358.34
2022-12-03T06:10:25.030Z,97363.72
2022-12-03T06:12:54.747Z,97364.56
2022-12-03T06:15:23.188Z,97354.53
2022-12-03T06:17:51.544Z,97360.25
2022-12-03T06:20:21.620Z,97357.63
2022-12-03T06:22:50.115Z,97359.44
2022-12-03T06:25:18.911Z,97363.97
2022-12-03T06:27:48.344Z,97367.53
2022-12-03T06:30:18.610Z,97368.25
2022-12-03T06:32:47.161Z,97362.41
2022-12-03T06:35:15.847Z,97361.44
2022-12-03T06:37:44.348Z,97367.53
2022-12-03T06:40:14.368Z,97359.88
2022-12-03T06:42:42.725Z,97366.69
2022-12-03T06:45:11.661Z,97362.50
2022-12-03T06:47:41.382Z,97362.50
2022-12-03T06:50:10.267Z,97355.59
2022-12-03T06:52:38.821Z,97357.25
2022-12-03T06:55:08.260Z,97354.63
2022-12-03T06:57:36.725Z,97351.06
2022-12-03T07:00:08.852Z,97345.91
2022-12-03T07:02:37.477Z,97339.81
2022-12-03T07:05:08.121Z,97337.19
2022-12-03T07:07:36.680Z,97341.00
2022-12-03T07:10:06.164Z,97340.88
2022-12-03T07:12:34.802Z,97339.94
2022-12-03T07:15:03.263Z,97346.25
2022-12-03T07:17:32.058Z,97353.06
2022-12-03T07:20:00.565Z,97347.09
2022-12-03T07:22:30.581Z,97350.44
2022-12-03T07:24:59.002Z,97340.88
2022-12-03T07:27:27.480Z,97347.81
2022-12-03T07:29:56.105Z,97349.50
2022-12-03T07:32:24.647Z,97351.41
2022-12-03T07:34:53.278Z,97344.34
2022-12-03T07:37:23.399Z,97349.59
2022-12-03T07:39:54.495Z,97345.31
2022-12-03T07:42:22.939Z,97343.50
2022-12-03T07:44:51.638Z,97351.50
2022-12-03T07:47:20.234Z,97350.66
2022-12-03T07:49:48.663Z,97347.94
2022-12-03T07:52:17.158Z,97349.72
2022-12-03T07:54:45.728Z,97338.25
2022-12-03T07:57:15.593Z,97344.47
2022-12-03T07:59:44.106Z,97346.13
2022-12-03T08:02:15.663Z,97346.97
2022-12-03T08:04:47.972Z,97340.16
2022-12-03T08:07:16.487Z,97340.28
2022-12-03T08:09:44.939Z,97338.38
2022-12-03T08:12:17.488Z,97335.75
2022-12-03T08:14:45.998Z,97328.94
2022-12-03T08:17:17.778Z,97333.13
2022-12-03T08:19:48.125Z,97327.03
2022-12-03T08:22:17.254Z,97322.63
2022-12-03T08:24:45.785Z,97323.34
2022-12-03T08:27:18.568Z,97323.34
2022-12-03T08:29:47.253Z,97320.72
2022-12-03T08:32:15.785Z,97331.22
2022-12-03T08:34:45.798Z,97336.47
2022-12-03T08:37:18.050Z,97340.06
2022-12-03T08:39:48.398Z,97336.59
2022-12-03T08:42:38.609Z,97335.88
2022-12-03T08:45:35.093Z,97328.81
2022-12-03T08:48:11.353Z,97332.28
2022-12-03T08:50:41.065Z,97332.28
2022-12-03T08:53:21.683Z,97333.25
2022-12-03T08:55:53.585Z,97336.59
2022-12-03T08:58:25.862Z,97332.28
2022-12-03T09:00:57.908Z,97332.16
2022-12-03T09:03:26.748Z,97333.13
2022-12-03T09:05:55.443Z,97337.53
2022-12-03T09:08:23.994Z,97329.66
2022-12-03T09:10:52.580Z,97319.03
2022-12-03T09:13:21.107Z,97316.53
2022-12-03T09:15:51.019Z,97342.78
2022-12-03T09:18:19.652Z,97365.47
2022-12-03T09:20:48.207Z,97339.22
2022-12-03T09:23:16.735Z,97337.53
2022-12-03T09:25:45.318Z,97343.63
2022-12-03T09:28:13.796Z,97348.78
2022-12-03T09:30:42.278Z,97332.28
2022-12-03T09:33:12.183Z,97344.59
2022-12-03T09:35:40.716Z,97342.78
2022-12-03T09:38:09.323Z,97331.44
2022-12-03T09:40:37.838Z,97335.75
2022-12-03T09:43:06.594Z,97328.72
2022-12-03T09:45:35.341Z,97319.16
2022-12-03T09:48:04.771Z,97327.88
2022-12-03T09:50:44.073Z,97332.28
2022-12-03T09:53:17.105Z,97323.47
2022-12-03T09:55:46.783Z,97323.56
2022-12-03T09:58:17.930Z,97307.81
2022-12-03T10:00:49.458Z,97317.38
2022-12-03T10:03:23.031Z,97308.53
2022-12-03T10:05:55.362Z,97312.94
2022-12-03T10:08:29.404Z,97308.53
2022-12-03T10:11:00.468Z,97325.25
2022-12-03T10:13:31.061Z,97309.47
2022-12-03T10:16:01.399Z,97305.19
2022-12-03T10:18:32.767Z,97306.03
2022-12-03T10:21:16.130Z,97307.69
2022-12-03T10:23:48.201Z,97306.84
2022-12-03T10:26:20.333Z,97301.59
2022-12-03T10:28:49.153Z,97306.03
2022-12-03T10:31:17.754Z,97307.69
2022-12-03T10:33:47.326Z,97291.09
2022-12-03T10:36:20.380Z,97300.66
2022-12-03T10:39:07.997Z,97305.06
2022-12-03T10:41:37.768Z,97296.34
2022-12-03T10:44:16.672Z,97295.50
2022-12-03T10:46:45.996Z,97292.78
2022-12-03T10:49:18.492Z,97287.63
2022-12-03T10:51:48.979Z,97291.94
2022-12-03T10:54:19.852Z,97298.03
2022-12-03T10:56:49.506Z,97301.50
2022-12-03T10:59:21.082Z,97287.63
2022-12-03T11:01:50.367Z,97291.94
2022-12-03T11:04:23.901Z,97278.81
2022-12-03T11:06:53.906Z,97283.09
2022-12-03T11:09:25.941Z,97279.75
2022-12-03T11:11:54.753Z,97280.59
2022-12-03T11:15:17.631Z,97270.91
2022-12-03T11:17:49.296Z,97263.88
2022-12-03T11:21:05.160Z,97259.56
2022-12-03T11:24:10.916Z,97256.00
2022-12-03T11:27:22.479Z,97243.81
2022-12-03T11:30:00.043Z,97239.41
2022-12-03T11:33:02.065Z,97236.78
2022-12-03T11:35:54.394Z,97237.63
2022-12-03T11:38:55.085Z,97245.50
2022-12-03T11:41:32.520Z,97247.16
2022-12-03T11:44:31.869Z,97248.94
2022-12-03T11:47:10.508Z,97248.94
2022-12-03T11:49:41.015Z,97251.59
2022-12-03T11:52:25.424Z,97241.06
2022-12-03T11:54:57.208Z,97230.56
2022-12-03T11:57:37.152Z,97228.91
2022-12-03T12:00:20.519Z,97227.94
2022-12-03T12:02:51.343Z,97230.56
2022-12-03T12:05:29.194Z,97222.69
2022-12-03T12:07:58.178Z,97208.72
2022-12-03T12:10:47.405Z,97219.22
2022-12-03T12:13:51.845Z,97217.44
2022-12-03T12:16:50.298Z,97215.53
2022-12-03T12:19:37.529Z,97215.66
2022-12-03T12:22:21.708Z,97210.38
2022-12-03T12:24:52.432Z,97200.72
2022-12-03T12:27:22.690Z,97204.31
2022-12-03T12:29:56.415Z,97208.72
2022-12-03T12:32:27.632Z,97217.44
2022-12-03T12:35:00.639Z,97210.38
2022-12-03T12:37:34.755Z,97206.94
2022-12-03T12:40:10.894Z,97210.50
2022-12-03T12:42:44.279Z,97200.84
2022-12-03T12:45:17.430Z,97192.13
2022-12-03T12:47:50.984Z,97184.25
2022-12-03T12:50:21.221Z,97183.28
2022-12-03T12:52:54.481Z,97182.44
2022-12-03T12:55:24.067Z,97188.66
2022-12-03T12:57:52.877Z,97178.03
2022-12-03T13:00:23.847Z,97189.38
2022-12-03T13:02:55.965Z,97188.53
2022-12-03T13:05:27.810Z,97177.19
2022-12-03T13:07:56.477Z,97174.56
2022-12-03T13:10:40.298Z,97167.66
2022-12-03T13:13:24.115Z,97170.28
2022-12-03T13:15:58.521Z,97176.38
2022-12-03T13:18:34.828Z,97165.03
2022-12-03T13:21:14.542Z,97173.75
2022-12-03T13:23:43.044Z,97164.91
2022-12-03T13:26:34.198Z,97158.09
2022-12-03T13:29:14.893Z,97160.59
2022-12-03T13:31:47.855Z,97165.84
2022-12-03T13:34:21.926Z,97162.28
2022-12-03T13:36:57.654Z,97157.97
2022-12-03T13:39:32.919Z,97150.09
2022-12-03T13:42:33.273Z,97158.94
2022-12-03T13:45:03.085Z,97152.84
2022-12-03T13:47:31.782Z,97158.94
2022-12-03T13:50:04.268Z,97160.59
2022-12-03T13:52:35.367Z,97151.16
2022-12-03T13:55:05.188Z,97141.50
2022-12-03T13:57:33.811Z,97146.63
2022-12-03T14:00:02.295Z,97139.59
2022-12-03T14:02:41.276Z,97140.53
2022-12-03T14:05:11.220Z,97142.47
2022-12-03T14:07:41.467Z,97136.13
2022-12-03T14:10:10.992Z,97131.84
2022-12-03T14:12:39.820Z,97134.47
2022-12-03T14:15:10.725Z,97139.72
2022-12-03T14:17:39.722Z,97135.28
2022-12-03T14:20:09.428Z,97137.91
2022-12-03T14:22:39.121Z,97132.66
2022-12-03T14:25:09.841Z,97132.66
2022-12-03T14:27:38.637Z,97150.22
2022-12-03T14:30:08.424Z,97153.81
2022-12-03T14:32:37.094Z,97150.22
2022-12-03T14:35:09.867Z,97149.38
2022-12-03T14:37:38.967Z,97148.44
2022-12-03T14:40:09.943Z,97150.09
2022-12-03T14:42:38.497Z,97157.25
2022-12-03T14:45:08.161Z,97158.09
2022-12-03T14:47:36.950Z,97145.81
2022-12-03T14:50:06.433Z,97152.84
2022-12-03T14:52:34.979Z,97145.81
2022-12-03T14:55:05.949Z,97148.44
2022-12-03T14:57:35.865Z,97155.34
2022-12-03T15:00:05.798Z,97148.44
2022-12-03T15:02:34.388Z,97157.13
2022-12-03T15:05:03.161Z,97151.88
2022-12-03T15:07:32.498Z,97148.44
2022-12-03T15:10:01.255Z,97137.09
2022-12-03T15:12:29.746Z,97145.91
2022-12-03T15:14:59.597Z,97135.41
2022-12-03T15:17:31.932Z,97135.28
2022-12-03T15:20:00.826Z,97137.91
2022-12-03T15:22:29.397Z,97130.75
2022-12-03T15:24:57.945Z,97133.50
2022-12-03T15:27:26.561Z,97130.88
2022-12-03T15:29:55.537Z,97135.28
2022-12-03T15:32:25.888Z,97130.88
2022-12-03T15:34:54.713Z,97127.41
2022-12-03T15:37:27.623Z,97138.88
2022-12-03T15:39:57.614Z,97130.16
2022-12-03T15:42:29.750Z,97138.03
2022-12-03T15:44:58.323Z,97128.50
2022-12-03T15:47:30.822Z,97131.00
2022-12-03T15:49:59.480Z,97130.88
2022-12-03T15:52:28.098Z,97120.63
2022-12-03T15:54:56.559Z,97135.28
2022-12-03T15:57:25.034Z,97125.63
2022-12-03T15:59:54.418Z,97130.88
2022-12-03T16:02:23.014Z,97118.94
2022-12-03T16:04:52.940Z,97131.00
2022-12-03T16:07:21.423Z,97121.31
2022-12-03T16:09:50.308Z,97129.09
2022-12-03T16:12:18.896Z,97123.84
2022-12-03T16:14:47.334Z,97127.41
2022-12-03T16:17:15.849Z,97127.41
2022-12-03T16:19:44.552Z,97122.16
2022-12-03T16:22:14.506Z,97122.16
2022-12-03T16:24:43.040Z,97123.00
2022-12-03T16:27:11.728Z,97111.66
2022-12-03T16:29:40.248Z,97117.75
2022-12-03T16:32:08.832Z,97121.22
2022-12-03T16:34:37.427Z,97122.16
2022-12-03T16:37:06.066Z,97123.84
2022-12-03T16:39:38.035Z,97125.63
2022-12-03T16:42:12.174Z,97121.31
2022-12-03T16:45:14.945Z,97123.00
2022-12-03T16:47:43.497Z,97127.41
2022-12-03T16:50:18.690Z,97127.41
2022-12-03T16:52:50.619Z,97123.94
2022-12-03T16:55:20.565Z,97116.91
2022-12-03T16:57:49.322Z,97123.00
2022-12-03T17:00:18.306Z,97115.25
2022-12-03T17:02:46.879Z,97120.50
2022-12-03T17:05:15.574Z,97116.91
2022-12-03T17:07:44.176Z,97116.91
2022-12-03T17:10:13.181Z,97109.03
2022-12-03T17:13:08.317Z,97108.19
2022-12-03T17:15:31.679Z,97103.06
2022-12-03T17:18:00.338Z,97107.34
2022-12-03T17:20:28.863Z,97110.09
2022-12-03T17:22:58.300Z,97118.69
2022-12-03T17:25:27.323Z,97107.47
2022-12-03T17:27:57.259Z,97109.38
2022-12-03T17:30:25.910Z,97118.94
2022-12-03T17:32:54.388Z,97114.53
2022-12-03T17:35:22.902Z,97114.53
2022-12-03T17:37:51.440Z,97121.44
2022-12-03T17:40:20.118Z,97119.78
2022-12-03T17:42:48.761Z,97110.09
2022-12-03T17:45:18.944Z,97114.53
2022-12-03T17:47:47.473Z,97115.47
2022-12-03T17:50:16.089Z,97111.06
2022-12-03T17:52:44.630Z,97103.06
2022-12-03T17:55:21.589Z,97096.13
2022-12-03T17:57:52.371Z,97107.47
2022-12-03T18:00:22.523Z,97101.50
2022-12-03T18:02:51.004Z,97094.34
2022-12-03T18:05:20.351Z,97104.97
2022-12-03T18:07:48.931Z,97100.44
2022-12-03T18:10:17.742Z,97095.31
2022-12-03T18:12:46.242Z,97102.34
2022-12-03T18:15:14.762Z,97102.34
2022-12-03T18:17:44.625Z,97104.13
2022-12-03T18:20:13.372Z,97099.72
2022-12-03T18:22:41.973Z,97098.88
2022-12-03T18:25:11.331Z,97084.91
2022-12-03T18:27:39.766Z,97089.22
2022-12-03T18:30:09.318Z,97090.88
2022-12-03T18:32:38.178Z,97082.16
2022-12-03T18:35:09.606Z,97088.25
2022-12-03T18:37:38.354Z,97076.09
2022-12-03T18:40:13.192Z,97077.88
2022-12-03T18:42:41.980Z,97073.56
2022-12-03T18:45:12.025Z,97078.59
2022-12-03T18:47:40.626Z,97072.50
2022-12-03T18:50:14.824Z,97074.28
2022-12-03T18:52:43.520Z,97076.09
2022-12-03T18:55:16.349Z,97073.47
2022-12-03T18:57:44.827Z,97074.28
2022-12-03T19:00:14.858Z,97071.66
2022-12-03T19:03:02.485Z,97078.72
2022-12-03T19:05:34.615Z,97077.88
2022-12-03T19:08:03.999Z,97074.28
2022-12-03T19:10:32.714Z,97072.63
2022-12-03T19:13:01.228Z,97064.75
2022-12-03T19:15:29.815Z,97060.44
2022-12-03T19:17:58.287Z,97066.28
2022-12-03T19:20:26.791Z,97065.47
2022-12-03T19:22:56.708Z,97058.41
2022-12-03T19:25:25.173Z,97060.44
2022-12-03T19:27:55.067Z,97060.31
2022-12-03T19:30:23.777Z,97055.91
2022-12-03T19:32:52.271Z,97067.13
2022-12-03T19:35:21.414Z,97057.59
2022-12-03T19:37:50.176Z,97057.69
2022-12-03T19:40:20.230Z,97049.81
2022-12-03T19:42:48.700Z,97048.88
2022-12-03T19:45:17.341Z,97050.66
2022-12-03T19:47:45.804Z,97041.94
2022-12-03T19:50:21.051Z,97039.31
2022-12-03T19:52:51.632Z,97045.41
2022-12-03T19:55:21.506Z,97027.97
2022-12-03T19:57:50.105Z,97048.16
2022-12-03T20:00:19.047Z,97051.50
2022-12-03T20:02:49.751Z,97054.94
2022-12-03T20:05:18.457Z,97061.16
2022-12-03T20:07:47.039Z,97057.00
2022-12-03T20:10:15.690Z,97055.19
2022-12-03T20:12:45.751Z,97057.81
2022-12-03T20:15:14.836Z,97054.34
2022-12-03T20:17:43.381Z,97046.47
2022-12-03T20:20:12.520Z,97046.34
2022-12-03T20:22:41.017Z,97042.78
2022-12-03T20:25:10.106Z,97041.94
2022-12-03T20:27:38.934Z,97035.13
2022-12-03T20:30:10.126Z,97037.66
2022-12-03T20:32:44.928Z,97036.81
2022-12-03T20:35:13.888Z,97043.59
2022-12-03T20:37:42.388Z,97035.13
2022-12-03T20:40:11.927Z,97040.97
2022-12-03T20:42:41.486Z,97040.97
2022-12-03T20:45:12.060Z,97040.97
2022-12-03T20:47:40.528Z,97040.28
2022-12-03T20:50:09.488Z,97035.72
2022-12-03T20:52:38.595Z,97037.53
2022-12-03T20:55:07.932Z,97025.47
2022-12-03T20:57:36.778Z,97026.19
2022-12-03T21:00:06.321Z,97028.81
2022-12-03T21:02:36.388Z,97030.59
2022-12-03T21:05:05.712Z,97026.19
2022-12-03T21:07:34.316Z,97026.19
2022-12-03T21:10:02.830Z,97027.97
2022-12-03T21:12:31.285Z,97022.00
2022-12-03T21:14:59.777Z,97020.22
2022-12-03T21:17:28.285Z,97015.94
2022-12-03T21:19:58.232Z,97009.72
2022-12-03T21:22:26.712Z,97017.59
2022-12-03T21:24:55.220Z,97011.50
2022-12-03T21:27:23.754Z,97006.25
2022-12-03T21:29:52.861Z,97004.47
2022-12-03T21:32:21.623Z,97007.91
2022-12-03T21:34:50.184Z,97003.50
2022-12-03T21:37:20.061Z,97008.75
2022-12-03T21:39:49.113Z,97001.84
2022-12-03T21:42:34.859Z,96988.72
2022-12-03T21:45:06.880Z,96983.44
2022-12-03T21:47:37.423Z,96970.31
2022-12-03T21:50:07.789Z,96979.03
2022-12-03T21:52:37.962Z,96978.19
2022-12-03T21:55:07.309Z,96991.34
2022-12-03T21:57:36.457Z,96989.66
2022-12-03T22:00:07.531Z,96989.66
2022-12-03T22:02:39.389Z,96985.25
2022-12-03T22:05:08.586Z,96992.16
2022-12-03T22:07:40.363Z,96978.19
2022-12-03T22:10:10.899Z,96988.72
2022-12-03T22:12:40.792Z,96983.44
2022-12-03T22:15:16.570Z,96990.63
2022-12-03T22:17:47.300Z,96990.50
2022-12-03T22:20:16.539Z,96993.00
2022-12-03T22:22:46.599Z,96984.28
2022-12-03T22:25:15.072Z,96973.78
2022-12-03T22:27:43.563Z,96975.69
2022-12-03T22:30:12.517Z,96980.00
2022-12-03T22:32:41.096Z,96978.31
2022-12-03T22:35:10.142Z,96970.44
2022-12-03T22:37:38.621Z,96973.91
2022-12-03T22:40:09.424Z,96977.50
2022-12-03T22:42:37.944Z,96974.88
2022-12-03T22:45:07.721Z,96980.00
2022-12-03T22:47:36.422Z,96980.00
2022-12-03T22:50:05.344Z,96974.88
2022-12-03T22:52:33.878Z,96972.25
2022-12-03T22:55:02.320Z,96969.50
2022-12-03T22:57:32.388Z,96963.53
2022-12-03T23:00:00.854Z,96956.47
2022-12-03T23:02:29.461Z,96961.72
2022-12-03T23:04:58.066Z,96965.31
2022-12-03T23:07:26.656Z,96953.72
2022-12-03T23:09:55.512Z,96961.72
2022-12-03T23:12:24.185Z,96957.31
2022-12-03T23:14:55.743Z,96969.63
2022-12-03T23:17:24.253Z,96968.66
2022-12-03T23:19:53.424Z,96969.63
2022-12-03T23:22:22.141Z,96970.44
2022-12-03T23:24:50.659Z,96955.53
2022-12-03T23:27:19.131Z,96954.81
2022-12-03T23:29:47.659Z,96946.81
2022-12-03T23:32:17.578Z,96939.91
2022-12-03T23:34:46.200Z,96939.91
2022-12-03T23:37:14.717Z,96940.72
2022-12-03T23:39:43.391Z,96940.72
2022-12-03T23:42:11.940Z,96934.50
2022-12-03T23:44:40.375Z,96932.84
2022-12-03T23:47:08.900Z,96924.00
2022-12-03T23:49:40.004Z,96922.34
2022-12-03T23:52:08.497Z,96933.81
2022-12-03T23:54:37.628Z,96923.31
2022-12-03T23:57:06.131Z,96917.09
2022-12-03T23:59:34.790Z,96924.00
